Time;durP1;ratioP1;P1;durP2;ratioP2;P2;SDS_P1;SDS_P2;PMS_P1;PMS_P2;Temp;Humidity;BMP_temperature;BMP_pressure;BME280_temperature;BME280_humidity;BME280_pressure;Samples;Min_cycle;Max_cycle;Signal;HPM_P1;HPM_P2
2022/08/31 00:04:38;;;;;;;;;;;18.40;99.90;;;;;;6153862;23;19905;-86
2022/08/31 00:07:04;;;;;;;;;;;18.40;99.90;;;;;;6129912;23;19944;-86
2022/08/31 00:09:31;;;;;;;;;;;18.40;99.90;;;;;;6154635;23;19909;-85
2022/08/31 00:11:57;;;;;;;;;;;18.40;99.90;;;;;;6155946;23;19900;-86
2022/08/31 00:14:23;;;;;;;;;;;18.40;99.90;;;;;;6154117;23;19908;-87
2022/08/31 00:16:48;;;;;;;;;;;18.30;99.90;;;;;;6154309;23;20479;-85
2022/08/31 00:19:14;;;;;;;;;;;18.40;99.90;;;;;;6129652;23;20550;-85
2022/08/31 00:21:40;;;;;;;;;;;18.30;99.90;;;;;;6154079;23;19908;-85
2022/08/31 00:24:06;;;;;;;;;;;18.40;99.90;;;;;;6128882;23;20210;-85
2022/08/31 00:26:32;;;;;;;;;;;18.30;99.90;;;;;;6128818;23;19908;-85
2022/08/31 00:28:57;;;;;;;;;;;18.30;99.90;;;;;;6129640;23;19905;-85
2022/08/31 00:31:23;;;;;;;;;;;18.30;99.90;;;;;;6154432;23;19904;-85
2022/08/31 00:33:51;;;;;;;;;;;18.20;99.90;;;;;;6155551;23;19944;-85
2022/08/31 00:36:18;;;;;;;;;;;18.20;99.90;;;;;;6129441;23;19987;-85
2022/08/31 00:38:47;;;;;;;;;;;18.20;99.90;;;;;;6153859;23;20372;-85
2022/08/31 00:41:12;;;;;;;;;;;18.20;99.90;;;;;;6154209;23;20273;-86
2022/08/31 00:43:40;;;;;;;;;;;18.10;99.90;;;;;;6154157;23;19904;-86
2022/08/31 00:46:07;;;;;;;;;;;18.20;99.90;;;;;;6132021;23;20031;-85
2022/08/31 00:48:33;;;;;;;;;;;18.20;99.90;;;;;;6131780;23;19909;-85
2022/08/31 00:50:59;;;;;;;;;;;18.10;99.90;;;;;;6156480;23;19904;-86
2022/08/31 00:53:25;;;;;;;;;;;18.10;99.90;;;;;;6131658;23;19959;-85
2022/08/31 00:55:51;;;;;;;;;;;18.00;99.90;;;;;;6131301;23;19920;-85
2022/08/31 00:58:16;;;;;;;;;;;18.00;99.90;;;;;;6156600;23;19908;-85
2022/08/31 01:00:43;;;;;;;;;;;18.00;99.90;;;;;;6131913;23;19987;-85
2022/08/31 01:03:09;;;;;;;;;;;17.90;99.90;;;;;;6155569;23;19940;-85
2022/08/31 01:05:35;;;;;;;;;;;17.80;99.90;;;;;;6156348;23;20281;-85
2022/08/31 01:08:01;;;;;;;;;;;17.80;99.90;;;;;;6156037;23;19909;-85
2022/08/31 01:10:29;;;;;;;;;;;17.70;99.90;;;;;;6156403;23;19991;-85
2022/08/31 01:12:55;;;;;;;;;;;17.70;99.90;;;;;;6132210;23;20375;-85
2022/08/31 01:15:23;;;;;;;;;;;17.60;99.90;;;;;;6132165;23;19912;-85
2022/08/31 01:17:50;;;;;;;;;;;17.60;99.90;;;;;;6131498;23;19943;-85
2022/08/31 01:20:22;;;;;;;;;;;17.50;99.90;;;;;;6131762;23;19920;-85
2022/08/31 01:22:55;;;;;;;;;;;17.50;99.90;;;;;;6156088;23;19904;-85
2022/08/31 01:25:21;;;;;;;;;;;17.50;99.90;;;;;;6155740;23;19911;-86
2022/08/31 01:27:47;;;;;;;;;;;17.50;99.90;;;;;;6131648;23;19905;-85
2022/08/31 01:30:19;;;;;;;;;;;17.50;99.90;;;;;;6131940;23;19908;-86
2022/08/31 01:32:46;;;;;;;;;;;17.50;99.90;;;;;;6156271;23;19940;-85
2022/08/31 01:35:11;;;;;;;;;;;17.50;99.90;;;;;;6155171;23;19915;-85
2022/08/31 01:37:37;;;;;;;;;;;17.40;99.90;;;;;;6131244;23;19959;-86
2022/08/31 01:40:04;;;;;;;;;;;17.40;99.90;;;;;;6155617;23;19909;-86
2022/08/31 01:42:31;;;;;;;;;;;17.40;99.90;;;;;;6156418;23;19951;-86
2022/08/31 01:44:56;;;;;;;;;;;17.30;99.90;;;;;;6155955;23;19983;-85
2022/08/31 01:47:22;;;;;;;;;;;17.30;99.90;;;;;;6156277;23;19986;-85
2022/08/31 01:49:48;;;;;;;;;;;17.30;99.90;;;;;;6131461;23;19955;-85
2022/08/31 01:52:13;;;;;;;;;;;17.30;99.90;;;;;;6131407;23;19952;-85
2022/08/31 01:54:39;;;;;;;;;;;17.20;99.90;;;;;;6154877;23;19905;-85
2022/08/31 01:57:05;;;;;;;;;;;17.20;99.90;;;;;;6155463;23;19913;-85
2022/08/31 01:59:51;;;;;;;;;;;17.30;99.90;;;;;;6154802;23;19905;-85
2022/08/31 02:02:39;;;;;;;;;;;17.30;99.90;;;;;;6157833;23;19909;-85
2022/08/31 02:05:05;;;;;;;;;;;17.20;99.90;;;;;;6155475;23;19917;-85
2022/08/31 02:07:31;;;;;;;;;;;17.10;99.90;;;;;;6131153;23;20340;-85
2022/08/31 02:09:58;;;;;;;;;;;17.00;99.90;;;;;;6130557;23;19911;-85
2022/08/31 02:12:23;;;;;;;;;;;17.00;99.90;;;;;;6131327;23;19904;-85
2022/08/31 02:14:49;;;;;;;;;;;16.90;99.90;;;;;;6130747;23;19905;-85
2022/08/31 02:17:14;;;;;;;;;;;16.90;99.90;;;;;;6155232;23;19909;-85
2022/08/31 02:19:40;;;;;;;;;;;16.90;99.90;;;;;;6155128;23;19908;-85
2022/08/31 02:22:06;;;;;;;;;;;16.90;99.90;;;;;;6130386;23;19908;-86
2022/08/31 02:24:32;;;;;;;;;;;16.90;99.90;;;;;;6130271;23;19979;-86
2022/08/31 02:26:57;;;;;;;;;;;16.90;99.90;;;;;;6130014;23;19912;-86
2022/08/31 02:29:24;;;;;;;;;;;16.80;99.90;;;;;;6131005;23;19904;-86
2022/08/31 02:31:50;;;;;;;;;;;16.70;99.90;;;;;;6130914;23;19911;-86
2022/08/31 02:34:16;;;;;;;;;;;16.70;99.90;;;;;;6130595;23;19909;-86
2022/08/31 02:36:44;;;;;;;;;;;16.60;99.90;;;;;;6131069;23;19923;-85
2022/08/31 02:39:10;;;;;;;;;;;16.60;99.90;;;;;;6130839;23;19904;-85
2022/08/31 02:41:36;;;;;;;;;;;16.60;99.90;;;;;;6130709;23;19908;-85
2022/08/31 02:44:02;;;;;;;;;;;16.60;99.90;;;;;;6154508;23;19909;-85
2022/08/31 02:46:29;;;;;;;;;;;16.50;99.90;;;;;;6130818;23;19905;-85
2022/08/31 02:49:23;;;;;;;;;;;16.50;99.90;;;;;;6155820;23;19987;-85
2022/08/31 02:51:48;;;;;;;;;;;16.50;99.90;;;;;;6131022;23;19946;-86
2022/08/31 02:54:14;;;;;;;;;;;16.40;99.90;;;;;;6155255;23;19951;-86
2022/08/31 02:56:39;;;;;;;;;;;16.50;99.90;;;;;;6130624;23;19963;-85
2022/08/31 02:59:06;;;;;;;;;;;16.50;99.90;;;;;;6155376;23;19911;-86
2022/08/31 03:01:32;;;;;;;;;;;16.40;99.90;;;;;;6130796;23;19905;-85
2022/08/31 03:03:59;;;;;;;;;;;16.40;99.90;;;;;;6130664;23;20233;-85
2022/08/31 03:06:25;;;;;;;;;;;16.40;99.90;;;;;;6130912;23;19991;-85
2022/08/31 03:08:51;;;;;;;;;;;16.30;99.90;;;;;;6130568;23;19944;-85
2022/08/31 03:11:17;;;;;;;;;;;16.30;99.90;;;;;;6130695;23;19905;-85
2022/08/31 03:13:43;;;;;;;;;;;16.30;99.90;;;;;;6130587;23;20645;-85
2022/08/31 03:16:10;;;;;;;;;;;16.20;99.90;;;;;;6130599;23;19905;-85
2022/08/31 03:18:36;;;;;;;;;;;16.20;99.90;;;;;;6130851;23;19909;-85
2022/08/31 03:21:01;;;;;;;;;;;16.20;99.90;;;;;;6130167;23;20393;-85
2022/08/31 03:23:28;;;;;;;;;;;16.20;99.90;;;;;;6130472;23;19908;-85
2022/08/31 03:25:54;;;;;;;;;;;16.20;99.90;;;;;;6130289;23;19955;-85
2022/08/31 03:28:19;;;;;;;;;;;16.30;99.90;;;;;;6155357;23;20383;-85
2022/08/31 03:31:09;;;;;;;;;;;16.20;99.90;;;;;;6134314;23;19940;-85
2022/08/31 03:33:35;;;;;;;;;;;16.20;99.90;;;;;;6154675;23;19991;-85
2022/08/31 03:36:03;;;;;;;;;;;16.20;99.90;;;;;;6130516;23;19928;-85
2022/08/31 03:38:29;;;;;;;;;;;16.20;99.90;;;;;;6154924;23;19932;-85
2022/08/31 03:40:55;;;;;;;;;;;16.20;99.90;;;;;;6130622;23;19912;-86
2022/08/31 03:43:20;;;;;;;;;;;16.20;99.90;;;;;;6130391;23;19940;-85
2022/08/31 03:45:48;;;;;;;;;;;16.30;99.90;;;;;;6130392;23;19908;-85
2022/08/31 03:48:14;;;;;;;;;;;16.30;99.90;;;;;;6155063;23;19928;-86
2022/08/31 03:50:42;;;;;;;;;;;16.20;99.90;;;;;;6154926;23;19908;-85
2022/08/31 03:53:14;;;;;;;;;;;16.20;99.90;;;;;;6154762;23;19900;-86
2022/08/31 03:55:50;;;;;;;;;;;16.20;99.90;;;;;;6130252;23;19915;-85
2022/08/31 03:58:16;;;;;;;;;;;16.20;99.90;;;;;;6130297;23;19912;-85
2022/08/31 04:00:42;;;;;;;;;;;16.30;99.90;;;;;;6154567;23;20005;-85
2022/08/31 04:03:22;;;;;;;;;;;16.30;99.90;;;;;;6132958;23;19908;-85
2022/08/31 04:06:10;;;;;;;;;;;16.30;99.90;;;;;;6154827;23;20284;-86
2022/08/31 04:08:59;;;;;;;;;;;16.30;99.90;;;;;;6127360;23;19905;-86
2022/08/31 04:11:44;;;;;;;;;;;16.40;99.90;;;;;;6154727;23;19911;-86
2022/08/31 04:14:28;;;;;;;;;;;16.40;99.90;;;;;;6155345;23;19951;-86
2022/08/31 04:17:12;;;;;;;;;;;16.40;99.90;;;;;;6154551;23;19963;-85
2022/08/31 04:19:45;;;;;;;;;;;16.40;99.90;;;;;;6153772;23;20315;-85
2022/08/31 04:22:26;;;;;;;;;;;16.40;99.90;;;;;;6154454;23;20232;-86
2022/08/31 04:25:21;;;;;;;;;;;16.50;99.90;;;;;;6154598;23;19904;-85
2022/08/31 04:27:49;;;;;;;;;;;16.50;99.90;;;;;;6130050;23;19946;-85
2022/08/31 04:30:14;;;;;;;;;;;16.40;99.90;;;;;;6154222;23;19905;-85
2022/08/31 04:32:40;;;;;;;;;;;16.50;99.90;;;;;;6129250;23;20493;-86
2022/08/31 04:35:07;;;;;;;;;;;16.50;99.90;;;;;;6154012;23;19943;-85
2022/08/31 04:37:33;;;;;;;;;;;16.50;99.90;;;;;;6130170;23;19908;-86
2022/08/31 04:40:00;;;;;;;;;;;16.50;99.90;;;;;;6154851;23;20429;-87
2022/08/31 04:42:27;;;;;;;;;;;16.40;99.90;;;;;;6130335;23;19952;-87
2022/08/31 04:44:53;;;;;;;;;;;16.50;99.90;;;;;;6130166;23;19904;-87
2022/08/31 04:47:19;;;;;;;;;;;16.50;99.90;;;;;;6154916;23;19952;-87
2022/08/31 04:49:45;;;;;;;;;;;16.50;99.90;;;;;;6154995;23;19911;-87
2022/08/31 04:52:11;;;;;;;;;;;16.50;99.90;;;;;;6130483;23;20031;-88
2022/08/31 04:54:36;;;;;;;;;;;16.40;99.90;;;;;;6154620;23;19940;-87
2022/08/31 04:57:02;;;;;;;;;;;16.50;99.90;;;;;;6130258;23;19932;-88
2022/08/31 04:59:31;;;;;;;;;;;16.40;99.90;;;;;;6155368;23;19904;-87
2022/08/31 05:02:16;;;;;;;;;;;16.40;99.90;;;;;;6152403;23;19916;-87
2022/08/31 05:04:55;;;;;;;;;;;16.40;99.90;;;;;;6132918;23;19938;-87
2022/08/31 05:07:21;;;;;;;;;;;16.40;99.90;;;;;;6130345;23;19920;-87
2022/08/31 05:09:47;;;;;;;;;;;16.40;99.90;;;;;;6130284;23;19905;-87
2022/08/31 05:12:12;;;;;;;;;;;16.40;99.90;;;;;;6130384;23;20246;-86
2022/08/31 05:14:39;;;;;;;;;;;16.40;99.90;;;;;;6130036;23;19901;-86
2022/08/31 05:17:14;;;;;;;;;;;16.40;99.90;;;;;;6132558;23;20428;-88
2022/08/31 05:19:40;;;;;;;;;;;16.40;99.90;;;;;;6154442;23;20487;-88
2022/08/31 05:22:06;;;;;;;;;;;16.40;99.90;;;;;;6129902;23;19919;-87
2022/08/31 05:24:36;;;;;;;;;;;16.40;99.90;;;;;;6128638;23;19959;-87
2022/08/31 05:27:01;;;;;;;;;;;16.40;99.90;;;;;;6130185;23;19911;-87
2022/08/31 05:29:27;;;;;;;;;;;16.40;99.90;;;;;;6155107;23;19904;-87
2022/08/31 05:32:11;;;;;;;;;;;16.40;99.90;;;;;;6135261;23;20321;-88
2022/08/31 05:34:36;;;;;;;;;;;16.40;99.90;;;;;;6131157;23;19911;-87
2022/08/31 05:37:03;;;;;;;;;;;16.40;99.90;;;;;;6131044;23;19916;-87
2022/08/31 05:39:32;;;;;;;;;;;16.40;99.90;;;;;;6155991;23;19979;-87
2022/08/31 05:41:58;;;;;;;;;;;16.50;99.90;;;;;;6156051;23;19959;-87
2022/08/31 05:44:25;;;;;;;;;;;16.50;99.90;;;;;;6130927;23;20276;-87
2022/08/31 05:46:51;;;;;;;;;;;16.50;99.90;;;;;;6131704;23;19916;-87
2022/08/31 05:49:17;;;;;;;;;;;16.50;99.90;;;;;;6156118;23;19904;-88
2022/08/31 05:51:43;;;;;;;;;;;16.60;99.90;;;;;;6155981;23;19936;-87
2022/08/31 05:54:09;;;;;;;;;;;16.60;99.90;;;;;;6131860;23;19908;-88
2022/08/31 05:56:36;;;;;;;;;;;16.70;99.90;;;;;;6155782;23;19974;-87
2022/08/31 05:59:02;;;;;;;;;;;16.70;99.90;;;;;;6131945;23;19971;-87
2022/08/31 06:01:31;;;;;;;;;;;16.80;99.90;;;;;;6132308;23;19904;-87
2022/08/31 06:04:11;;;;;;;;;;;16.80;99.90;;;;;;6155883;23;20325;-88
2022/08/31 06:06:37;;;;;;;;;;;16.80;99.90;;;;;;6155969;23;19947;-88
2022/08/31 06:09:04;;;;;;;;;;;16.80;99.90;;;;;;6130961;23;19904;-87
2022/08/31 06:11:31;;;;;;;;;;;16.70;99.90;;;;;;6155282;23;20269;-87
2022/08/31 06:13:58;;;;;;;;;;;16.70;99.90;;;;;;6130028;23;19911;-86
2022/08/31 06:16:25;;;;;;;;;;;16.70;99.90;;;;;;6131062;23;19909;-88
2022/08/31 06:18:53;;;;;;;;;;;16.70;99.90;;;;;;6155922;23;19991;-87
2022/08/31 06:21:23;;;;;;;;;;;16.70;99.90;;;;;;6131174;23;19904;-87
2022/08/31 06:23:51;;;;;;;;;;;16.70;99.90;;;;;;6130710;23;20206;-87
2022/08/31 06:26:19;;;;;;;;;;;16.70;99.90;;;;;;6130865;23;19951;-88
2022/08/31 06:28:47;;;;;;;;;;;16.70;99.90;;;;;;6130824;23;19905;-88
2022/08/31 06:31:28;;;;;;;;;;;16.60;99.90;;;;;;6130601;23;19955;-88
2022/08/31 06:33:55;;;;;;;;;;;16.70;99.90;;;;;;6155781;23;19904;-88
2022/08/31 06:36:40;;;;;;;;;;;16.70;99.90;;;;;;6153991;23;19912;-87
2022/08/31 06:39:36;;;;;;;;;;;16.70;99.90;;;;;;6102049;23;19909;-87
2022/08/31 06:42:12;;;;;;;;;;;16.70;99.90;;;;;;6133128;23;19905;-87
2022/08/31 06:44:57;;;;;;;;;;;16.80;99.90;;;;;;6153220;23;19912;-87
2022/08/31 06:47:42;;;;;;;;;;;16.80;99.90;;;;;;6156658;23;19938;-87
2022/08/31 06:50:11;;;;;;;;;;;16.80;99.90;;;;;;6130481;23;19908;-87
2022/08/31 06:52:36;;;;;;;;;;;16.90;99.90;;;;;;6129820;23;19909;-87
2022/08/31 06:55:11;;;;;;;;;;;16.90;99.90;;;;;;6155311;23;19939;-87
2022/08/31 06:57:55;;;;;;;;;;;17.00;99.90;;;;;;6155030;23;19978;-87
2022/08/31 07:01:10;;;;;;;;;;;17.20;99.90;;;;;;6094867;23;19905;-87
2022/08/31 07:03:58;;;;;;;;;;;17.30;99.90;;;;;;6071967;23;20376;-88
2022/08/31 07:06:25;;;;;;;;;;;17.50;99.90;;;;;;6111954;23;20328;-87
2022/08/31 07:08:53;;;;;;;;;;;17.60;99.90;;;;;;6130891;23;19912;-87
2022/08/31 07:11:22;;;;;;;;;;;17.80;99.90;;;;;;6154993;23;19908;-88
2022/08/31 07:13:49;;;;;;;;;;;18.00;99.90;;;;;;6154666;23;19904;-87
2022/08/31 07:16:16;;;;;;;;;;;18.10;99.90;;;;;;6155080;23;20261;-87
2022/08/31 07:18:43;;;;;;;;;;;18.20;99.90;;;;;;6130550;23;19908;-87
2022/08/31 07:21:11;;;;;;;;;;;18.40;99.90;;;;;;6130453;23;19908;-88
2022/08/31 07:23:38;;;;;;;;;;;18.60;99.90;;;;;;6129810;23;19970;-88
2022/08/31 07:26:11;;;;;;;;;;;18.70;99.90;;;;;;6132173;23;19911;-90
2022/08/31 07:28:37;;;;;;;;;;;18.70;99.90;;;;;;6130818;23;19905;-88
2022/08/31 07:31:04;;;;;;;;;;;18.80;99.90;;;;;;6153759;23;19916;-88
2022/08/31 07:33:39;;;;;;;;;;;18.90;99.90;;;;;;6155179;23;19936;-88
2022/08/31 07:36:11;;;;;;;;;;;19.20;99.90;;;;;;6154768;23;19909;-88
2022/08/31 07:44:27;;;;;;;;;;;19.50;99.90;;;;;;6155057;23;20038;-88
2022/08/31 07:46:53;;;;;;;;;;;19.60;99.90;;;;;;6130599;23;19916;-88
2022/08/31 07:49:20;;;;;;;;;;;19.80;99.90;;;;;;6130947;23;19904;-88
2022/08/31 07:52:02;;;;;;;;;;;19.80;99.90;;;;;;6155216;23;19904;-88
2022/08/31 07:55:05;;;;;;;;;;;19.70;99.90;;;;;;6136781;23;19911;-87
2022/08/31 07:57:47;;;;;;;;;;;19.60;99.90;;;;;;6132938;23;19908;-88
2022/08/31 08:00:34;;;;;;;;;;;19.60;99.90;;;;;;6130546;23;19967;-88
2022/08/31 08:03:05;;;;;;;;;;;19.70;99.90;;;;;;6130367;23;19904;-88
2022/08/31 08:05:37;;;;;;;;;;;19.80;99.90;;;;;;6130608;23;19909;-87
2022/08/31 08:08:21;;;;;;;;;;;20.00;99.90;;;;;;6154558;23;19905;-88
2022/08/31 08:11:17;;;;;;;;;;;20.30;99.90;;;;;;6134662;23;19915;-87
2022/08/31 08:14:03;;;;;;;;;;;20.30;99.90;;;;;;6155192;23;19912;-88
2022/08/31 08:16:43;;;;;;;;;;;20.30;99.90;;;;;;6133352;23;19914;-88
2022/08/31 08:19:29;;;;;;;;;;;20.30;99.90;;;;;;6134490;23;19908;-87
2022/08/31 08:21:55;;;;;;;;;;;20.30;99.90;;;;;;6130301;23;19904;-88
2022/08/31 08:24:24;;;;;;;;;;;20.40;99.90;;;;;;6130023;23;19991;-88
2022/08/31 08:27:01;;;;;;;;;;;20.40;99.90;;;;;;6155233;23;20241;-89
2022/08/31 08:29:39;;;;;;;;;;;20.60;99.90;;;;;;6133420;23;20352;-87
2022/08/31 08:32:07;;;;;;;;;;;20.80;99.90;;;;;;6130550;23;19909;-88
2022/08/31 08:34:33;;;;;;;;;;;21.10;99.90;;;;;;6130476;23;19912;-88
2022/08/31 08:37:01;;;;;;;;;;;21.50;99.90;;;;;;6130979;23;19912;-89
2022/08/31 08:39:26;;;;;;;;;;;21.70;99.90;;;;;;6130656;23;19905;-88
2022/08/31 08:42:01;;;;;;;;;;;21.90;99.90;;;;;;6154451;23;19905;-88
2022/08/31 08:44:27;;;;;;;;;;;22.10;99.90;;;;;;6130353;23;19904;-88
2022/08/31 08:46:55;;;;;;;;;;;22.20;99.90;;;;;;6130142;23;19900;-88
2022/08/31 08:49:39;;;;;;;;;;;22.10;99.90;;;;;;6154753;23;19904;-89
2022/08/31 08:52:10;;;;;;;;;;;22.10;99.90;;;;;;6130474;23;20321;-89
2022/08/31 08:54:39;;;;;;;;;;;22.20;99.90;;;;;;6130271;23;19923;-88
2022/08/31 08:57:12;;;;;;;;;;;22.30;99.90;;;;;;6154869;23;20439;-89
2022/08/31 08:59:43;;;;;;;;;;;22.40;99.90;;;;;;6130033;23;19912;-88
2022/08/31 09:02:14;;;;;;;;;;;22.40;99.90;;;;;;6153923;23;20002;-88
2022/08/31 09:04:46;;;;;;;;;;;22.40;99.90;;;;;;6154015;23;19912;-88
2022/08/31 09:07:43;;;;;;;;;;;22.20;99.90;;;;;;6133950;23;19909;-88
2022/08/31 09:10:41;;;;;;;;;;;22.30;99.90;;;;;;6129624;23;19912;-88
2022/08/31 09:13:13;;;;;;;;;;;22.10;99.90;;;;;;6083331;23;19905;-88
2022/08/31 09:15:47;;;;;;;;;;;21.90;99.90;;;;;;6156324;23;19913;-88
2022/08/31 09:18:36;;;;;;;;;;;21.70;99.90;;;;;;6132621;23;20325;-88
2022/08/31 09:21:21;;;;;;;;;;;21.40;99.90;;;;;;6132880;23;19908;-88
2022/08/31 09:24:00;;;;;;;;;;;21.40;99.90;;;;;;6131828;23;19905;-88
2022/08/31 09:26:29;;;;;;;;;;;21.30;99.90;;;;;;6131121;23;20006;-88
2022/08/31 09:29:21;;;;;;;;;;;21.00;99.90;;;;;;6134727;23;19908;-88
2022/08/31 09:31:46;;;;;;;;;;;20.90;99.90;;;;;;6130690;23;20047;-88
2022/08/31 09:34:30;;;;;;;;;;;21.00;99.90;;;;;;6155542;23;19943;-87
2022/08/31 09:37:18;;;;;;;;;;;20.90;99.90;;;;;;6131941;23;20318;-87
2022/08/31 09:39:46;;;;;;;;;;;20.60;99.90;;;;;;6118882;23;20262;-89
2022/08/31 09:42:15;;;;;;;;;;;20.50;99.90;;;;;;6132081;23;19905;-88
2022/08/31 09:44:42;;;;;;;;;;;20.70;99.90;;;;;;6155908;23;19904;-88
2022/08/31 09:47:47;;;;;;;;;;;20.90;99.90;;;;;;6131576;23;19955;-88
2022/08/31 09:50:25;;;;;;;;;;;20.70;99.90;;;;;;6118345;23;19942;-88
2022/08/31 09:56:02;;;;;;;;;;;20.90;99.90;;;;;;6155365;23;19928;-87
2022/08/31 09:58:29;;;;;;;;;;;20.80;99.90;;;;;;6131147;23;20379;-88
2022/08/31 10:00:55;;;;;;;;;;;20.80;99.90;;;;;;6155907;23;19904;-88
2022/08/31 10:03:22;;;;;;;;;;;20.80;99.90;;;;;;6131197;23;19908;-88
2022/08/31 10:05:50;;;;;;;;;;;20.80;99.90;;;;;;6156105;23;19951;-87
2022/08/31 10:08:34;;;;;;;;;;;20.80;99.90;;;;;;6131596;23;20329;-88
2022/08/31 10:11:05;;;;;;;;;;;20.80;99.90;;;;;;6131654;23;19905;-87
2022/08/31 10:13:36;;;;;;;;;;;20.70;99.90;;;;;;6130350;23;20048;-88
2022/08/31 10:16:24;;;;;;;;;;;20.70;99.90;;;;;;6155099;23;19931;-88
2022/08/31 10:18:51;;;;;;;;;;;20.70;99.90;;;;;;6130477;23;19912;-89
2022/08/31 10:21:20;;;;;;;;;;;20.70;99.90;;;;;;6131115;23;19905;-88
2022/08/31 10:23:56;;;;;;;;;;;20.90;99.90;;;;;;6130728;23;19904;-88
2022/08/31 10:26:35;;;;;;;;;;;21.30;99.90;;;;;;6131519;23;20329;-89
2022/08/31 10:29:05;;;;;;;;;;;21.50;99.90;;;;;;6155824;23;20228;-89
2022/08/31 10:31:35;;;;;;;;;;;21.90;99.90;;;;;;6156225;23;19932;-88
2022/08/31 10:37:11;;;;;;;;;;;22.70;99.90;;;;;;6155511;23;19908;-88
2022/08/31 10:39:41;;;;;;;;;;;22.70;99.90;;;;;;6131039;23;19970;-89
2022/08/31 10:42:15;;;;;;;;;;;22.90;99.90;;;;;;6131003;23;19911;-89
2022/08/31 10:44:47;;;;;;;;;;;23.00;99.90;;;;;;6131390;23;20234;-88
2022/08/31 10:47:14;;;;;;;;;;;23.30;99.90;;;;;;6156208;23;19908;-88
2022/08/31 10:49:39;;;;;;;;;;;23.70;99.90;;;;;;6130379;23;19904;-88
2022/08/31 10:52:16;;;;;;;;;;;24.00;99.90;;;;;;6131093;23;20321;-89
2022/08/31 10:55:11;;;;;;;;;;;24.00;99.90;;;;;;6131345;23;19911;-88
2022/08/31 10:57:48;;;;;;;;;;;24.30;99.90;;;;;;6153796;23;19915;-89
2022/08/31 11:03:12;;;;;;;;;;;25.50;99.90;;;;;;6155391;23;19916;-88
2022/08/31 11:05:45;;;;;;;;;;;26.90;99.90;;;;;;6131270;23;19927;-89
2022/08/31 11:08:11;;;;;;;;;;;27.50;99.90;;;;;;6131002;23;20325;-88
2022/08/31 11:10:47;;;;;;;;;;;27.80;99.90;;;;;;6155546;23;19951;-88
2022/08/31 11:13:37;;;;;;;;;;;27.70;97.90;;;;;;6130851;23;19912;-88
2022/08/31 11:16:05;;;;;;;;;;;27.60;97.60;;;;;;6130873;23;19920;-88
2022/08/31 11:18:50;;;;;;;;;;;27.40;96.90;;;;;;6130919;23;20424;-89
2022/08/31 11:21:41;;;;;;;;;;;27.70;96.30;;;;;;6130631;23;19911;-89
2022/08/31 11:24:12;;;;;;;;;;;27.90;95.60;;;;;;6154189;23;20285;-88
2022/08/31 11:26:51;;;;;;;;;;;27.50;95.30;;;;;;6130515;23;19908;-88
2022/08/31 11:29:20;;;;;;;;;;;27.70;94.80;;;;;;6129963;23;19904;-88
2022/08/31 11:31:46;;;;;;;;;;;28.00;94.40;;;;;;6130148;23;19955;-89
2022/08/31 11:34:15;;;;;;;;;;;27.70;93.70;;;;;;6128988;23;19955;-88
2022/08/31 11:36:42;;;;;;;;;;;27.20;94.30;;;;;;6130638;23;20314;-89
2022/08/31 11:39:07;;;;;;;;;;;26.90;94.60;;;;;;6154199;23;19912;-88
2022/08/31 11:41:38;;;;;;;;;;;26.30;95.50;;;;;;6129958;23;20368;-89
2022/08/31 11:44:06;;;;;;;;;;;26.20;95.30;;;;;;6154306;23;19909;-88
2022/08/31 11:46:38;;;;;;;;;;;26.10;95.50;;;;;;6156321;23;19905;-88
2022/08/31 11:49:04;;;;;;;;;;;25.70;95.90;;;;;;6129864;23;19986;-87
2022/08/31 11:51:31;;;;;;;;;;;25.20;97.70;;;;;;6129871;23;20002;-87
2022/08/31 11:53:57;;;;;;;;;;;24.90;97.70;;;;;;6129955;23;20350;-88
2022/08/31 11:56:58;;;;;;;;;;;24.80;97.90;;;;;;6129861;23;19912;-90
2022/08/31 11:59:34;;;;;;;;;;;24.80;97.60;;;;;;6070317;23;19912;-87
2022/08/31 12:02:19;;;;;;;;;;;24.60;98.00;;;;;;6118595;23;19952;-87
2022/08/31 12:04:46;;;;;;;;;;;24.50;98.10;;;;;;6130262;23;19904;-88
2022/08/31 12:07:14;;;;;;;;;;;24.50;97.60;;;;;;6129739;23;19908;-89
2022/08/31 12:09:43;;;;;;;;;;;24.60;97.80;;;;;;6130425;23;19904;-88
2022/08/31 12:12:18;;;;;;;;;;;24.80;97.10;;;;;;6130395;23;20051;-89
2022/08/31 12:14:48;;;;;;;;;;;24.90;97.20;;;;;;6153997;23;19905;-88
2022/08/31 12:17:20;;;;;;;;;;;24.90;96.90;;;;;;6129642;23;20047;-88
2022/08/31 12:20:01;;;;;;;;;;;24.80;97.20;;;;;;6130228;23;19904;-87
2022/08/31 12:25:28;;;;;;;;;;;23.60;97.70;;;;;;6153946;23;20241;-87
2022/08/31 12:28:04;;;;;;;;;;;23.30;98.20;;;;;;6154782;23;19908;-87
2022/08/31 12:30:29;;;;;;;;;;;23.10;98.90;;;;;;6154634;23;20028;-87
2022/08/31 12:33:13;;;;;;;;;;;23.20;98.70;;;;;;6129262;23;19960;-88
2022/08/31 12:35:39;;;;;;;;;;;23.30;98.10;;;;;;6154682;23;20281;-88
2022/08/31 12:38:06;;;;;;;;;;;23.30;97.80;;;;;;6154533;23;19909;-88
2022/08/31 12:40:34;;;;;;;;;;;23.50;98.60;;;;;;6157687;23;19904;-85
2022/08/31 12:43:00;;;;;;;;;;;23.50;98.50;;;;;;6131737;23;19984;-87
2022/08/31 12:45:44;;;;;;;;;;;23.30;98.70;;;;;;6157200;23;19936;-88
2022/08/31 12:48:22;;;;;;;;;;;23.10;98.40;;;;;;6156797;23;20027;-89
2022/08/31 12:51:07;;;;;;;;;;;23.20;98.90;;;;;;6131466;23;19983;-88
2022/08/31 12:53:33;;;;;;;;;;;23.20;98.30;;;;;;6111778;23;19936;-87
2022/08/31 12:55:58;;;;;;;;;;;23.20;98.00;;;;;;6131944;23;19901;-88
2022/08/31 12:58:30;;;;;;;;;;;23.40;98.70;;;;;;6131730;23;19915;-87
2022/08/31 13:01:07;;;;;;;;;;;23.60;98.60;;;;;;6155669;23;19912;-87
2022/08/31 13:03:33;;;;;;;;;;;23.70;98.10;;;;;;6131712;23;19909;-89
2022/08/31 13:06:12;;;;;;;;;;;23.70;98.20;;;;;;6131747;23;19905;-89
2022/08/31 13:08:42;;;;;;;;;;;23.60;98.20;;;;;;6155314;23;19936;-88
2022/08/31 13:11:25;;;;;;;;;;;23.60;98.50;;;;;;6132068;23;19905;-88
2022/08/31 13:13:52;;;;;;;;;;;23.50;98.00;;;;;;6156084;23;19904;-88
2022/08/31 13:16:18;;;;;;;;;;;23.50;97.70;;;;;;6156179;23;19979;-87
2022/08/31 13:18:45;;;;;;;;;;;23.60;97.20;;;;;;6156743;23;19920;-88
2022/08/31 13:21:11;;;;;;;;;;;23.60;97.10;;;;;;6156162;23;19904;-88
2022/08/31 13:23:38;;;;;;;;;;;23.60;97.30;;;;;;6156531;23;20326;-88
2022/08/31 13:26:12;;;;;;;;;;;23.60;97.10;;;;;;6131390;23;19912;-88
2022/08/31 13:28:37;;;;;;;;;;;23.70;97.00;;;;;;6131502;23;19904;-89
2022/08/31 13:31:06;;;;;;;;;;;23.90;97.20;;;;;;6131521;23;20264;-88
2022/08/31 13:33:33;;;;;;;;;;;24.20;97.00;;;;;;6130749;23;19909;-88
2022/08/31 13:36:12;;;;;;;;;;;24.30;96.10;;;;;;6155721;23;19909;-87
2022/08/31 13:38:56;;;;;;;;;;;24.50;95.80;;;;;;6131114;23;19913;-87
2022/08/31 13:41:34;;;;;;;;;;;24.70;95.20;;;;;;6155555;23;19983;-88
2022/08/31 13:44:01;;;;;;;;;;;25.10;95.80;;;;;;6155966;23;20317;-86
2022/08/31 13:46:30;;;;;;;;;;;25.40;93.70;;;;;;6132079;23;19904;-88
2022/08/31 13:49:00;;;;;;;;;;;25.30;93.30;;;;;;6131240;23;19909;-88
2022/08/31 13:51:38;;;;;;;;;;;25.30;93.10;;;;;;6130710;23;19915;-88
2022/08/31 13:54:06;;;;;;;;;;;25.20;93.30;;;;;;6130831;23;20341;-87
2022/08/31 13:59:28;;;;;;;;;;;25.20;92.80;;;;;;6155376;23;19905;-88
2022/08/31 14:01:55;;;;;;;;;;;25.20;92.60;;;;;;6130612;23;19919;-89
2022/08/31 14:07:22;;;;;;;;;;;24.80;93.70;;;;;;6139362;23;19935;-88
2022/08/31 14:09:57;;;;;;;;;;;24.80;93.90;;;;;;6130919;23;19923;-87
2022/08/31 14:12:35;;;;;;;;;;;24.80;94.00;;;;;;6131152;23;19919;-88
2022/08/31 14:15:08;;;;;;;;;;;25.00;93.90;;;;;;6130744;23;19904;-88
2022/08/31 14:17:37;;;;;;;;;;;25.20;94.00;;;;;;6156310;23;19908;-87
2022/08/31 14:20:24;;;;;;;;;;;25.00;93.90;;;;;;6155477;23;19912;-88
2022/08/31 14:22:50;;;;;;;;;;;24.90;94.10;;;;;;6155334;23;19931;-88
2022/08/31 14:25:38;;;;;;;;;;;24.80;94.00;;;;;;6130597;23;19904;-88
2022/08/31 14:28:04;;;;;;;;;;;24.80;94.00;;;;;;6155797;23;19916;-89
2022/08/31 14:30:34;;;;;;;;;;;24.50;94.90;;;;;;6155493;23;19905;-88
2022/08/31 14:33:00;;;;;;;;;;;24.30;94.30;;;;;;6130848;23;19979;-89
2022/08/31 14:35:25;;;;;;;;;;;24.10;95.30;;;;;;6131286;23;19963;-88
2022/08/31 14:37:51;;;;;;;;;;;23.80;95.20;;;;;;6155141;23;19912;-88
2022/08/31 14:40:17;;;;;;;;;;;23.60;95.90;;;;;;6131062;23;19984;-88
2022/08/31 14:42:43;;;;;;;;;;;23.40;96.00;;;;;;6131454;23;19912;-88
2022/08/31 14:45:17;;;;;;;;;;;23.40;96.20;;;;;;6130474;23;20309;-88
2022/08/31 14:47:43;;;;;;;;;;;23.60;96.80;;;;;;6130848;23;20336;-88
2022/08/31 14:50:17;;;;;;;;;;;23.70;95.90;;;;;;6130731;23;19908;-87
2022/08/31 14:52:45;;;;;;;;;;;23.70;96.70;;;;;;6155563;23;19958;-88
2022/08/31 14:55:12;;;;;;;;;;;23.50;96.50;;;;;;6154830;23;19905;-87
2022/08/31 14:57:42;;;;;;;;;;;23.40;96.40;;;;;;6130412;23;19991;-88
2022/08/31 15:00:08;;;;;;;;;;;23.60;95.90;;;;;;6154561;23;19912;-89
2022/08/31 15:02:34;;;;;;;;;;;23.40;96.10;;;;;;6130269;23;19912;-88
2022/08/31 15:05:03;;;;;;;;;;;23.60;96.30;;;;;;6154091;23;20371;-88
2022/08/31 15:07:30;;;;;;;;;;;23.50;96.40;;;;;;6154789;23;19905;-90